Time;durP1;ratioP1;P1;durP2;ratioP2;P2;SDS_P1;SDS_P2;PMS_P1;PMS_P2;Temp;Humidity;BMP_temperature;BMP_pressure;BME280_temperature;BME280_humidity;BME280_pressure;Samples;Min_cycle;Max_cycle;Signal;HPM_P1;HPM_P2
2022/04/16 00:01:49;;;;;;;6.20;4.35;;;7.80;98.10;;;;;;5073087;28;20342;-79
2022/04/16 00:04:14;;;;;;;6.60;3.72;;;7.80;98.00;;;;;;5091335;28;20016;-78
2022/04/16 00:06:40;;;;;;;7.78;4.55;;;7.80;98.00;;;;;;5090535;28;20422;-78
2022/04/16 00:09:05;;;;;;;7.00;4.05;;;7.80;98.00;;;;;;5091441;28;20202;-81
2022/04/16 00:11:31;;;;;;;6.85;4.20;;;7.70;97.90;;;;;;5090958;28;20077;-78
2022/04/16 00:13:56;;;;;;;7.22;4.72;;;7.70;98.00;;;;;;5089966;28;20024;-81
2022/04/16 00:16:22;;;;;;;7.47;4.30;;;7.60;98.20;;;;;;5090476;28;20375;-80
2022/04/16 00:18:48;;;;;;;7.35;4.35;;;7.70;98.00;;;;;;5091181;28;20028;-80
2022/04/16 00:21:13;;;;;;;9.85;4.10;;;7.60;98.00;;;;;;5090694;28;20072;-78
2022/04/16 00:23:43;;;;;;;5.82;3.78;;;7.60;98.10;;;;;;5091008;28;20024;-78
2022/04/16 00:26:12;;;;;;;5.78;3.90;;;7.70;98.10;;;;;;5090242;28;20093;-78
2022/04/16 00:28:40;;;;;;;7.28;4.05;;;7.70;97.90;;;;;;5090824;28;20020;-81
2022/04/16 00:31:06;;;;;;;7.85;3.88;;;7.70;97.70;;;;;;5090527;28;20719;-78
2022/04/16 00:33:33;;;;;;;6.50;4.18;;;7.70;97.60;;;;;;5090742;28;20035;-79
2022/04/16 00:36:02;;;;;;;7.50;4.03;;;7.60;97.90;;;;;;5090137;28;20583;-78
2022/04/16 00:38:28;;;;;;;5.03;3.65;;;7.60;97.90;;;;;;5090547;28;20055;-79
2022/04/16 00:40:53;;;;;;;7.20;4.25;;;7.50;97.90;;;;;;5090522;28;20113;-78
2022/04/16 00:43:27;;;;;;;6.05;3.35;;;7.50;98.10;;;;;;5090742;28;20031;-81
2022/04/16 00:45:53;;;;;;;3.88;3.05;;;7.40;98.10;;;;;;5089941;28;20028;-80
2022/04/16 00:48:20;;;;;;;6.25;3.60;;;7.40;98.10;;;;;;5090557;28;20169;-79
2022/04/16 00:50:48;;;;;;;7.47;3.70;;;7.50;98.00;;;;;;5090186;28;20068;-80
2022/04/16 00:53:13;;;;;;;6.68;4.50;;;7.60;97.90;;;;;;5072438;28;20073;-80
2022/04/16 00:55:39;;;;;;;5.50;4.00;;;7.60;97.90;;;;;;5089124;28;20409;-80
2022/04/16 00:58:05;;;;;;;4.57;3.75;;;7.60;97.80;;;;;;5072163;28;20595;-79
2022/04/16 01:00:30;;;;;;;4.15;3.53;;;7.70;97.50;;;;;;5090410;28;20107;-78
2022/04/16 01:02:57;;;;;;;9.88;3.67;;;7.70;97.40;;;;;;5090394;28;20052;-80
2022/04/16 01:05:23;;;;;;;5.35;3.38;;;7.70;97.70;;;;;;5071666;28;20116;-80
2022/04/16 01:07:53;;;;;;;3.95;3.13;;;7.70;97.50;;;;;;5072211;28;20044;-77
2022/04/16 01:10:21;;;;;;;4.32;3.25;;;7.70;97.60;;;;;;5072112;28;20034;-77
2022/04/16 01:12:46;;;;;;;5.68;3.10;;;7.70;97.50;;;;;;5090236;28;20456;-79
2022/04/16 01:15:13;;;;;;;5.15;2.97;;;7.70;97.40;;;;;;5090137;28;20031;-78
2022/04/16 01:17:39;;;;;;;6.10;3.55;;;7.50;97.80;;;;;;5090158;28;20333;-80
2022/04/16 01:20:05;;;;;;;10.10;3.70;;;7.50;97.70;;;;;;5090367;28;20452;-81
2022/04/16 01:22:30;;;;;;;5.47;3.05;;;7.50;97.70;;;;;;5089852;28;20032;-80
2022/04/16 01:24:56;;;;;;;5.72;3.00;;;7.60;97.90;;;;;;5090817;28;20097;-80
2022/04/16 01:27:21;;;;;;;6.45;2.97;;;7.50;98.00;;;;;;5089350;28;20039;-78
2022/04/16 01:29:48;;;;;;;5.40;3.08;;;7.40;97.90;;;;;;5089072;28;20060;-79
2022/04/16 01:32:13;;;;;;;4.78;3.50;;;7.40;97.90;;;;;;5090107;28;20042;-79
2022/04/16 01:34:40;;;;;;;4.90;2.90;;;7.40;97.70;;;;;;5085020;28;20029;-79
2022/04/16 01:37:05;;;;;;;2.47;2.00;;;7.30;97.50;;;;;;5051178;28;20086;-78
2022/04/16 01:39:31;;;;;;;3.78;2.60;;;7.30;97.40;;;;;;5051959;28;20461;-77
2022/04/16 01:41:58;;;;;;;8.52;2.70;;;7.20;97.10;;;;;;5069709;28;20519;-77
2022/04/16 01:44:23;;;;;;;4.75;2.80;;;7.20;97.60;;;;;;5069739;28;20052;-80
2022/04/16 01:46:49;;;;;;;3.72;2.13;;;7.20;97.40;;;;;;5069248;28;20082;-79
2022/04/16 01:49:14;;;;;;;3.13;2.25;;;7.10;97.10;;;;;;5051897;28;20075;-77
2022/04/16 01:51:40;;;;;;;7.32;2.80;;;7.00;97.20;;;;;;5069739;28;20024;-80
2022/04/16 01:54:05;;;;;;;3.65;2.05;;;6.90;97.50;;;;;;5069842;28;20025;-79
2022/04/16 01:56:31;;;;;;;4.07;2.00;;;7.00;97.50;;;;;;5069165;28;20033;-79
2022/04/16 01:58:56;;;;;;;3.55;2.42;;;7.00;97.30;;;;;;5069651;28;20038;-78
2022/04/16 02:01:22;;;;;;;5.07;2.08;;;7.00;97.20;;;;;;5069379;28;20060;-79
2022/04/16 02:03:48;;;;;;;3.85;2.30;;;6.80;97.70;;;;;;5069809;28;20020;-78
2022/04/16 02:06:13;;;;;;;3.13;2.05;;;6.70;97.40;;;;;;5068782;28;20020;-78
2022/04/16 02:08:39;;;;;;;3.90;2.25;;;6.70;97.50;;;;;;5072209;28;20024;-78
2022/04/16 02:11:04;;;;;;;3.88;2.40;;;6.70;97.30;;;;;;5073080;28;20090;-81
2022/04/16 02:13:30;;;;;;;3.95;2.60;;;6.70;97.40;;;;;;5073358;28;20138;-80
2022/04/16 02:15:56;;;;;;;3.90;2.20;;;6.50;97.60;;;;;;5072590;28;20021;-78
2022/04/16 02:18:23;;;;;;;3.22;2.30;;;6.40;97.60;;;;;;5073162;28;20358;-78
2022/04/16 02:20:49;;;;;;;7.22;2.35;;;6.30;97.40;;;;;;5072548;28;20020;-78
2022/04/16 02:23:15;;;;;;;3.40;2.25;;;6.30;96.50;;;;;;5071859;28;20021;-77
2022/04/16 02:25:43;;;;;;;4.80;1.67;;;6.10;95.90;;;;;;5072255;28;20120;-79
2022/04/16 02:28:09;;;;;;;4.47;2.20;;;6.10;95.80;;;;;;5073075;28;20024;-79
2022/04/16 02:30:34;;;;;;;2.55;1.75;;;6.00;95.50;;;;;;5054704;28;20032;-80
2022/04/16 02:33:00;;;;;;;2.22;1.83;;;5.80;95.40;;;;;;5072684;28;20530;-80
2022/04/16 02:35:26;;;;;;;5.80;2.00;;;5.80;95.40;;;;;;5072040;28;20033;-80
2022/04/16 02:37:51;;;;;;;2.22;2.03;;;5.70;95.40;;;;;;5071574;28;20032;-79
2022/04/16 02:40:17;;;;;;;2.25;1.73;;;5.60;95.70;;;;;;5072877;28;20024;-80
2022/04/16 02:42:45;;;;;;;4.28;2.33;;;5.50;95.70;;;;;;5072573;28;20036;-80
2022/04/16 02:48:00;;;;;;;4.97;1.98;;;5.30;95.70;;;;;;5072898;28;20444;-81
2022/04/16 02:50:28;;;;;;;3.40;2.33;;;5.20;96.00;;;;;;5072493;28;20032;-80
2022/04/16 02:52:55;;;;;;;3.05;2.00;;;5.10;96.10;;;;;;5054261;28;20021;-80
2022/04/16 02:55:22;;;;;;;3.72;2.70;;;5.10;96.40;;;;;;5070560;28;20032;-79
2022/04/16 02:57:49;;;;;;;4.22;2.17;;;5.10;96.40;;;;;;5072797;28;20106;-77
2022/04/16 03:00:15;;;;;;;4.80;2.08;;;5.00;96.40;;;;;;5072442;28;20021;-79
2022/04/16 03:02:41;;;;;;;4.28;2.40;;;5.00;96.40;;;;;;5071867;28;20082;-78
2022/04/16 03:05:08;;;;;;;4.35;1.75;;;4.90;96.60;;;;;;5072040;28;20048;-79
2022/04/16 03:07:34;;;;;;;3.90;1.80;;;4.90;96.70;;;;;;5071119;28;20016;-78
2022/04/16 03:09:59;;;;;;;7.18;2.05;;;4.90;96.60;;;;;;5072376;28;20036;-79
2022/04/16 03:12:25;;;;;;;3.28;1.50;;;4.80;96.70;;;;;;5071747;28;20092;-79
2022/04/16 03:17:35;;;;;;;2.92;1.90;;;4.70;97.30;;;;;;5071464;28;20522;-80
2022/04/16 03:20:06;;;;;;;6.70;2.25;;;4.70;97.10;;;;;;5070923;28;20036;-79
2022/04/16 03:22:35;;;;;;;3.40;1.95;;;4.70;96.90;;;;;;5071425;28;20055;-82
2022/04/16 03:25:07;;;;;;;3.30;1.63;;;4.60;97.10;;;;;;5054017;28;20070;-77
2022/04/16 03:27:33;;;;;;;3.15;2.03;;;4.50;97.10;;;;;;5053062;28;20028;-78
2022/04/16 03:29:58;;;;;;;2.58;1.90;;;4.40;97.40;;;;;;5053569;28;20039;-77
2022/04/16 03:32:24;;;;;;;4.38;1.73;;;4.30;97.70;;;;;;5070970;28;20059;-77
2022/04/16 03:34:50;;;;;;;7.47;2.40;;;4.20;97.90;;;;;;5053615;28;20385;-76
2022/04/16 03:37:15;;;;;;;2.47;1.88;;;4.20;97.80;;;;;;5070864;28;20071;-80
2022/04/16 03:39:41;;;;;;;5.35;2.30;;;4.30;97.80;;;;;;5071683;28;20033;-78
2022/04/16 03:42:06;;;;;;;7.35;2.83;;;4.10;98.20;;;;;;5071300;28;20020;-79
2022/04/16 03:44:32;;;;;;;3.40;2.13;;;4.10;98.20;;;;;;5071353;28;20469;-79
2022/04/16 03:46:57;;;;;;;3.65;2.35;;;4.00;98.10;;;;;;5052562;28;20024;-80
2022/04/16 03:49:23;;;;;;;2.58;1.67;;;3.90;98.30;;;;;;5071275;28;20154;-79
2022/04/16 03:51:49;;;;;;;5.10;2.40;;;4.00;98.20;;;;;;5071076;28;20025;-80
2022/04/16 04:00:00;;;;;;;3.15;2.13;;;4.10;97.70;;;;;;5071475;28;20038;-80
2022/04/16 04:02:28;;;;;;;3.72;1.80;;;4.10;97.40;;;;;;5070680;28;20029;-81
2022/04/16 04:04:54;;;;;;;6.63;2.60;;;4.10;97.40;;;;;;5070993;28;20020;-81
2022/04/16 04:07:20;;;;;;;5.80;2.80;;;4.10;97.60;;;;;;5070043;28;20035;-79
2022/04/16 04:09:45;;;;;;;5.80;1.95;;;4.20;97.30;;;;;;5071189;28;20046;-81
2022/04/16 04:12:12;;;;;;;5.65;2.15;;;4.20;97.20;;;;;;5070552;28;20024;-78
2022/04/16 04:14:39;;;;;;;4.53;2.33;;;4.20;97.10;;;;;;5071279;28;20723;-80
2022/04/16 04:17:07;;;;;;;4.55;2.10;;;4.20;97.30;;;;;;5070635;28;20090;-77
2022/04/16 04:19:36;;;;;;;7.05;2.60;;;4.20;97.50;;;;;;5070625;28;20020;-79
2022/04/16 04:22:08;;;;;;;4.43;1.98;;;4.40;97.00;;;;;;5070529;28;20025;-78
2022/04/16 04:24:33;;;;;;;4.57;1.67;;;4.40;96.70;;;;;;5070853;28;20025;-78
2022/04/16 04:27:00;;;;;;;3.45;2.72;;;4.50;96.80;;;;;;5069823;28;20031;-78
2022/04/16 04:29:29;;;;;;;3.67;1.83;;;4.50;96.40;;;;;;5070445;28;20028;-80
2022/04/16 04:31:55;;;;;;;2.75;1.85;;;4.40;96.60;;;;;;5070150;28;20052;-78
2022/04/16 04:34:21;;;;;;;4.30;1.75;;;4.30;96.90;;;;;;5070399;28;20032;-78
2022/04/16 04:36:47;;;;;;;2.45;2.10;;;4.40;96.70;;;;;;5069705;28;20021;-78
2022/04/16 04:39:12;;;;;;;4.65;1.80;;;4.50;96.40;;;;;;5070681;28;20036;-79
2022/04/16 04:41:39;;;;;;;3.35;2.05;;;4.60;96.40;;;;;;5052129;28;20087;-78
2022/04/16 04:44:05;;;;;;;2.83;1.80;;;4.60;96.20;;;;;;5070408;28;20364;-78
2022/04/16 04:46:31;;;;;;;3.40;2.00;;;4.70;96.00;;;;;;5051471;28;20036;-78
2022/04/16 04:48:56;;;;;;;3.83;2.40;;;4.60;95.90;;;;;;5070136;28;20020;-78
2022/04/16 04:51:22;;;;;;;6.28;2.40;;;4.70;96.20;;;;;;5069999;28;20039;-78
2022/04/16 04:53:47;;;;;;;3.85;2.40;;;4.70;96.30;;;;;;5070211;28;20457;-79
2022/04/16 04:56:13;;;;;;;2.40;1.98;;;4.70;96.10;;;;;;5070019;28;20107;-77
2022/04/16 04:58:38;;;;;;;3.95;2.03;;;4.70;96.20;;;;;;5070132;28;20473;-80
2022/04/16 05:01:04;;;;;;;6.70;2.58;;;4.90;96.30;;;;;;5070143;28;20468;-79
2022/04/16 05:03:29;;;;;;;3.83;2.53;;;4.90;95.80;;;;;;5070170;28;20428;-79
2022/04/16 05:05:55;;;;;;;5.55;2.22;;;4.90;95.30;;;;;;5069741;28;20524;-82
2022/04/16 05:08:20;;;;;;;6.40;2.33;;;4.80;95.40;;;;;;5070112;28;20032;-77
2022/04/16 05:10:46;;;;;;;4.15;2.00;;;4.60;95.70;;;;;;5070119;28;20040;-78
2022/04/16 05:13:11;;;;;;;3.53;2.30;;;4.60;96.00;;;;;;5070671;28;20082;-78
2022/04/16 05:15:37;;;;;;;3.47;2.25;;;4.70;95.80;;;;;;5051425;28;20492;-79
2022/04/16 05:18:02;;;;;;;3.80;1.55;;;4.80;95.70;;;;;;5070264;28;20039;-80
2022/04/16 05:20:28;;;;;;;3.08;2.38;;;4.80;95.70;;;;;;5070136;28;20051;-79
2022/04/16 05:22:53;;;;;;;4.60;2.58;;;4.80;95.60;;;;;;5070021;28;20373;-81
2022/04/16 05:25:19;;;;;;;2.60;1.85;;;4.90;95.50;;;;;;5069310;28;20021;-80
2022/04/16 05:27:46;;;;;;;3.40;1.73;;;5.00;95.90;;;;;;5070440;28;20021;-79
2022/04/16 05:30:13;;;;;;;4.10;2.03;;;5.00;95.00;;;;;;5069962;28;20151;-79
2022/04/16 05:32:42;;;;;;;2.67;2.13;;;5.00;94.90;;;;;;5070168;28;20017;-78
2022/04/16 05:35:10;;;;;;;2.65;1.55;;;5.00;94.70;;;;;;5069928;28;20017;-80
2022/04/16 05:37:36;;;;;;;2.25;1.40;;;5.10;94.40;;;;;;5069700;28;20078;-80
2022/04/16 05:40:03;;;;;;;4.72;1.95;;;5.20;94.60;;;;;;5070314;28;20024;-80
2022/04/16 05:42:29;;;;;;;3.88;1.80;;;5.20;94.70;;;;;;5070391;28;20059;-79
2022/04/16 05:45:02;;;;;;;4.85;1.80;;;5.30;94.20;;;;;;5056386;28;20048;-79
2022/04/16 05:47:28;;;;;;;2.70;1.83;;;5.40;94.30;;;;;;5072935;28;20031;-78
2022/04/16 05:49:54;;;;;;;3.60;1.98;;;5.40;93.90;;;;;;5073846;28;20028;-80
2022/04/16 05:52:22;;;;;;;2.50;1.75;;;5.30;94.00;;;;;;5073261;28;20017;-80
2022/04/16 05:54:47;;;;;;;4.00;1.70;;;5.30;94.40;;;;;;5073673;28;20457;-79
2022/04/16 05:57:13;;;;;;;2.58;1.65;;;5.30;94.10;;;;;;5073139;28;20035;-78
2022/04/16 05:59:39;;;;;;;1.83;1.73;;;5.40;93.50;;;;;;5073398;28;20388;-79
2022/04/16 06:02:04;;;;;;;3.13;2.00;;;5.40;93.60;;;;;;5073130;28;20445;-78
2022/04/16 06:04:30;;;;;;;2.20;1.65;;;5.30;93.70;;;;;;5055229;28;20021;-79
2022/04/16 06:06:55;;;;;;;2.17;1.60;;;5.30;93.40;;;;;;5072508;28;20099;-78
2022/04/16 06:09:21;;;;;;;2.97;1.50;;;5.50;93.20;;;;;;5073387;28;20243;-78
2022/04/16 06:11:48;;;;;;;2.30;1.90;;;5.40;93.00;;;;;;5055177;28;20070;-79
2022/04/16 06:14:14;;;;;;;2.65;1.85;;;5.40;93.10;;;;;;5073538;28;20016;-77
2022/04/16 06:16:40;;;;;;;6.30;1.77;;;5.40;93.40;;;;;;5072748;28;20442;-78
2022/04/16 06:19:06;;;;;;;2.05;1.65;;;5.40;93.80;;;;;;5073245;28;20032;-77
2022/04/16 06:21:31;;;;;;;1.88;1.50;;;5.40;93.60;;;;;;5072800;28;20380;-79
2022/04/16 06:23:57;;;;;;;4.68;1.92;;;5.30;93.70;;;;;;5073211;28;20358;-79
2022/04/16 06:26:25;;;;;;;6.15;1.80;;;5.50;93.70;;;;;;5071035;28;20031;-78
2022/04/16 06:28:51;;;;;;;1.40;1.30;;;5.50;93.70;;;;;;5073093;28;20034;-78
2022/04/16 06:31:17;;;;;;;4.68;1.77;;;5.60;93.80;;;;;;5072634;28;20020;-79
2022/04/16 06:33:42;;;;;;;2.97;1.60;;;5.70;93.50;;;;;;5073158;28;20120;-76
2022/04/16 06:36:08;;;;;;;2.63;1.60;;;5.90;93.30;;;;;;5072412;28;20016;-78
2022/04/16 06:38:33;;;;;;;2.15;1.70;;;5.90;93.00;;;;;;5072735;28;20028;-80
2022/04/16 06:40:58;;;;;;;3.53;1.70;;;6.00;93.10;;;;;;5072535;28;20063;-80
2022/04/16 06:43:24;;;;;;;2.28;1.48;;;6.10;92.80;;;;;;5072740;28;20016;-80
2022/04/16 06:45:49;;;;;;;2.25;1.35;;;6.10;92.70;;;;;;5072154;28;20021;-81
2022/04/16 06:48:15;;;;;;;7.63;1.90;;;6.20;92.00;;;;;;5073059;28;20038;-77
2022/04/16 06:50:40;;;;;;;2.25;1.70;;;5.90;92.20;;;;;;5072386;28;20028;-78
2022/04/16 06:53:06;;;;;;;4.90;2.13;;;5.80;92.50;;;;;;5072586;28;20625;-80
2022/04/16 06:55:31;;;;;;;3.80;1.95;;;5.90;92.50;;;;;;5071736;28;20029;-79
2022/04/16 06:57:57;;;;;;;1.80;1.70;;;5.80;92.90;;;;;;5054626;28;20032;-77
2022/04/16 07:00:23;;;;;;;4.25;1.77;;;6.00;93.10;;;;;;5054025;28;20032;-79
2022/04/16 07:02:49;;;;;;;4.00;1.60;;;6.10;92.50;;;;;;5072216;28;20027;-80
2022/04/16 07:05:14;;;;;;;2.92;1.83;;;6.10;92.60;;;;;;5071848;28;20611;-79
2022/04/16 07:07:40;;;;;;;3.50;1.67;;;6.20;92.40;;;;;;5053898;28;20089;-80
2022/04/16 07:10:06;;;;;;;3.55;1.58;;;6.40;92.30;;;;;;5072316;28;20040;-78
2022/04/16 07:12:32;;;;;;;2.30;1.75;;;6.60;91.20;;;;;;5071717;28;20021;-79
2022/04/16 07:14:58;;;;;;;2.42;1.55;;;6.30;91.50;;;;;;5072173;28;20021;-81
2022/04/16 07:17:23;;;;;;;3.22;1.40;;;6.40;91.60;;;;;;5071428;28;20028;-82
2022/04/16 07:19:49;;;;;;;2.90;1.40;;;6.30;91.30;;;;;;5071694;28;20372;-80
2022/04/16 07:22:18;;;;;;;3.78;1.25;;;6.30;91.40;;;;;;5071778;28;20024;-79
2022/04/16 07:24:45;;;;;;;2.63;1.35;;;6.50;91.10;;;;;;5072437;28;20032;-80
2022/04/16 07:27:11;;;;;;;2.05;1.65;;;6.50;90.90;;;;;;5071111;28;20031;-79
2022/04/16 07:29:36;;;;;;;6.00;1.42;;;6.40;90.80;;;;;;5071674;28;20032;-76
2022/04/16 07:32:02;;;;;;;2.78;1.88;;;6.50;90.80;;;;;;5071855;28;20039;-78
2022/04/16 07:34:27;;;;;;;2.05;1.50;;;6.50;90.30;;;;;;5071624;28;20040;-78
2022/04/16 07:36:53;;;;;;;2.88;1.73;;;6.60;90.60;;;;;;5071143;28;20028;-79
2022/04/16 07:39:18;;;;;;;2.40;1.35;;;6.60;90.50;;;;;;5071649;28;20476;-76
2022/04/16 07:41:43;;;;;;;1.67;1.58;;;6.80;91.30;;;;;;5071615;28;20118;-80
2022/04/16 07:44:09;;;;;;;3.42;1.38;;;7.00;90.30;;;;;;5071523;28;20028;-81
2022/04/16 07:46:35;;;;;;;3.15;1.13;;;7.00;90.30;;;;;;5070801;28;20022;-79
2022/04/16 07:49:02;;;;;;;3.08;1.52;;;7.00;90.30;;;;;;5053395;28;20024;-80
2022/04/16 07:51:28;;;;;;;4.97;1.42;;;7.10;90.40;;;;;;5071018;28;20028;-80
2022/04/16 07:53:55;;;;;;;1.65;1.02;;;7.30;89.70;;;;;;5071280;28;20032;-79
2022/04/16 07:56:21;;;;;;;1.70;1.00;;;7.20;89.10;;;;;;5070754;28;20025;-78
2022/04/16 07:58:47;;;;;;;3.25;1.60;;;7.10;89.50;;;;;;5071440;28;20032;-81
2022/04/16 08:01:13;;;;;;;2.70;0.95;;;7.10;89.90;;;;;;5053111;28;20027;-79
2022/04/16 08:03:38;;;;;;;2.90;1.30;;;7.00;89.80;;;;;;5070998;28;20373;-79
2022/04/16 08:06:04;;;;;;;1.88;1.25;;;6.90;90.20;;;;;;5052110;28;20016;-79
2022/04/16 08:08:29;;;;;;;2.10;1.20;;;6.70;90.30;;;;;;5071122;28;20035;-77
2022/04/16 08:10:56;;;;;;;3.45;1.13;;;6.70;90.60;;;;;;5070831;28;20036;-78
2022/04/16 08:13:22;;;;;;;1.25;0.93;;;6.80;90.60;;;;;;5071038;28;20029;-79
2022/04/16 08:15:48;;;;;;;1.63;1.00;;;6.70;90.00;;;;;;5070421;28;20465;-79
2022/04/16 08:18:14;;;;;;;1.48;1.02;;;6.70;89.10;;;;;;5071200;28;20032;-80
2022/04/16 08:20:40;;;;;;;1.48;1.27;;;6.80;90.20;;;;;;5070705;28;20029;-80
2022/04/16 08:23:06;;;;;;;3.33;1.20;;;6.90;89.80;;;;;;5071033;28;20021;-79
2022/04/16 08:28:01;;;;;;;1.10;0.82;;;7.00;88.40;;;;;;5071124;28;20029;-78
2022/04/16 08:30:28;;;;;;;2.38;0.82;;;7.20;87.30;;;;;;5070585;28;20477;-80
2022/04/16 08:32:54;;;;;;;3.28;1.13;;;7.30;88.70;;;;;;5070582;28;20473;-79
2022/04/16 08:35:19;;;;;;;2.80;1.20;;;7.40;87.60;;;;;;5069871;28;20024;-79
2022/04/16 08:37:46;;;;;;;2.10;1.10;;;7.50;86.60;;;;;;5052971;28;20449;-79
2022/04/16 08:40:13;;;;;;;1.52;0.90;;;7.60;88.20;;;;;;5070794;28;20480;-80
2022/04/16 08:42:41;;;;;;;4.35;1.10;;;7.70;86.30;;;;;;5070567;28;20427;-80
2022/04/16 08:45:09;;;;;;;2.55;1.45;;;7.80;87.70;;;;;;5070703;28;20059;-78
2022/04/16 08:47:35;;;;;;;2.05;1.40;;;8.00;90.30;;;;;;5069839;28;20028;-80
2022/04/16 08:50:02;;;;;;;1.98;1.10;;;8.10;85.60;;;;;;5052680;28;20354;-80
2022/04/16 08:52:29;;;;;;;3.10;0.90;;;8.40;88.10;;;;;;5052206;28;20118;-78
2022/04/16 08:54:56;;;;;;;3.22;1.10;;;8.30;87.10;;;;;;5070650;28;20101;-80
2022/04/16 08:57:22;;;;;;;2.42;1.13;;;8.50;85.00;;;;;;5069511;28;20028;-78
2022/04/16 08:59:51;;;;;;;2.13;1.55;;;8.60;84.90;;;;;;5070608;28;20024;-80
2022/04/16 09:02:21;;;;;;;1.23;0.90;;;8.60;83.90;;;;;;5070212;28;20020;-79
2022/04/16 09:04:48;;;;;;;2.17;1.10;;;8.70;84.50;;;;;;5052606;28;20024;-80
2022/04/16 09:07:14;;;;;;;1.73;1.00;;;8.90;86.50;;;;;;5051502;28;20469;-79
2022/04/16 09:09:40;;;;;;;3.25;1.45;;;9.20;83.50;;;;;;5070528;28;20037;-79
2022/04/16 09:12:26;;;;;;;2.78;1.30;;;9.40;83.80;;;;;;5068774;28;20025;-79
2022/04/16 09:14:52;;;;;;;1.17;1.02;;;9.60;83.10;;;;;;5070092;28;20037;-79
2022/04/16 09:17:18;;;;;;;3.20;1.20;;;9.50;82.20;;;;;;5070349;28;20031;-78
2022/04/16 09:19:53;;;;;;;2.83;0.93;;;9.60;81.40;;;;;;5074415;28;20025;-80
2022/04/16 09:22:31;;;;;;;2.00;0.73;;;9.70;81.20;;;;;;5074305;28;20103;-80
2022/04/16 09:24:57;;;;;;;5.78;1.00;;;9.70;80.00;;;;;;5074424;28;20036;-80
2022/04/16 09:27:22;;;;;;;1.25;1.00;;;9.40;81.20;;;;;;5073378;28;20465;-79
2022/04/16 09:29:48;;;;;;;1.45;1.05;;;9.50;84.40;;;;;;5074154;28;20480;-80
2022/04/16 09:32:25;;;;;;;1.08;0.90;;;9.60;81.60;;;;;;5073990;28;20020;-79
2022/04/16 09:34:54;;;;;;;4.15;1.10;;;9.60;80.50;;;;;;5056238;28;20101;-80
2022/04/16 09:37:23;;;;;;;3.40;1.38;;;9.60;81.50;;;;;;5073375;28;20051;-80
2022/04/16 09:39:49;;;;;;;1.77;1.20;;;9.60;80.50;;;;;;5074088;28;20048;-79
2022/04/16 09:42:27;;;;;;;2.83;1.15;;;9.50;82.10;;;;;;5073818;28;20421;-79
2022/04/16 09:44:52;;;;;;;1.92;0.95;;;9.50;82.80;;;;;;5074055;28;20393;-79
2022/04/16 09:47:23;;;;;;;1.40;0.98;;;9.60;80.60;;;;;;5055230;28;20027;-80
2022/04/16 09:49:51;;;;;;;1.63;1.23;;;9.30;80.60;;;;;;5073839;28;20059;-79
2022/04/16 09:52:20;;;;;;;1.60;1.10;;;9.40;81.40;;;;;;5073604;28;20442;-80
2022/04/16 09:54:49;;;;;;;2.10;1.20;;;9.30;81.60;;;;;;5073912;28;20033;-78
2022/04/16 09:57:20;;;;;;;2.75;1.67;;;9.30;80.90;;;;;;5055206;28;20540;-80
2022/04/16 09:59:50;;;;;;;1.05;0.93;;;9.30;81.10;;;;;;5073979;28;20476;-80
2022/04/16 10:02:16;;;;;;;1.50;1.20;;;9.30;80.80;;;;;;5073436;28;20060;-81
2022/04/16 10:04:42;;;;;;;2.88;1.10;;;9.20;79.90;;;;;;5072378;28;20064;-80
2022/04/16 10:07:08;;;;;;;2.42;1.38;;;9.30;82.90;;;;;;5054787;28;20544;-78
2022/04/16 10:09:41;;;;;;;1.40;0.90;;;9.50;81.20;;;;;;5072295;28;20116;-81
2022/04/16 10:14:57;;;;;;;3.38;0.90;;;9.80;79.50;;;;;;5073819;28;20028;-79
2022/04/16 10:17:32;;;;;;;1.55;1.10;;;9.90;78.50;;;;;;5073007;28;20028;-79
2022/04/16 10:20:29;;;;;;;2.75;1.30;;;10.10;79.90;;;;;;5073657;28;20095;-78
2022/04/16 10:23:03;;;;;;;2.00;1.10;;;10.30;78.40;;;;;;5071791;28;20016;-81
2022/04/16 10:25:39;;;;;;;2.25;0.93;;;10.60;77.30;;;;;;5072483;28;20079;-78
2022/04/16 10:28:09;;;;;;;1.83;1.10;;;10.80;77.30;;;;;;5072172;28;20035;-82
2022/04/16 10:30:39;;;;;;;2.58;1.05;;;11.00;75.70;;;;;;5073468;28;20100;-81
2022/04/16 10:33:20;;;;;;;3.72;1.25;;;10.80;74.90;;;;;;5073222;28;20017;-78
2022/04/16 10:35:57;;;;;;;1.58;0.82;;;10.80;81.80;;;;;;5054610;28;20031;-78
2022/04/16 10:38:34;;;;;;;2.85;0.82;;;10.90;79.30;;;;;;5072760;28;20461;-80
2022/04/16 10:41:13;;;;;;;2.25;0.80;;;11.10;75.90;;;;;;5072928;28;20028;-81
2022/04/16 10:43:40;;;;;;;2.80;0.80;;;11.30;76.60;;;;;;5073135;28;20020;-79
2022/04/16 10:46:07;;;;;;;1.13;0.88;;;11.10;75.40;;;;;;5072403;28;20029;-81
2022/04/16 10:48:41;;;;;;;2.88;0.90;;;11.10;73.90;;;;;;5073353;28;20104;-78
2022/04/16 10:51:08;;;;;;;1.80;0.85;;;10.80;75.00;;;;;;5065915;28;20032;-79
2022/04/16 10:53:36;;;;;;;0.73;0.73;;;11.00;75.50;;;;;;5065607;28;20486;-79
2022/04/16 10:56:15;;;;;;;1.50;1.10;;;11.10;76.00;;;;;;5092189;28;20020;-78
2022/04/16 10:58:43;;;;;;;2.03;0.93;;;11.40;74.20;;;;;;5092654;28;20810;-79
2022/04/16 11:01:13;;;;;;;2.88;1.10;;;11.50;72.80;;;;;;5074323;28;20020;-79
2022/04/16 11:03:47;;;;;;;2.90;0.85;;;11.30;73.90;;;;;;5074332;28;20034;-79
2022/04/16 11:06:12;;;;;;;2.17;1.10;;;11.10;75.00;;;;;;5073765;28;20476;-81
2022/04/16 11:08:40;;;;;;;1.83;0.90;;;11.10;77.10;;;;;;5092728;28;20035;-82
2022/04/16 11:11:06;;;;;;;1.25;0.73;;;11.40;77.80;;;;;;5092290;28;20027;-79
2022/04/16 11:13:33;;;;;;;0.77;0.77;;;11.90;76.40;;;;;;5092632;28;20024;-82
2022/04/16 11:15:59;;;;;;;2.80;0.73;;;12.30;74.40;;;;;;5091559;28;20027;-81
2022/04/16 11:18:37;;;;;;;1.05;0.65;;;12.60;73.20;;;;;;5092612;28;20088;-79
2022/04/16 11:21:07;;;;;;;1.70;1.50;;;12.80;71.20;;;;;;5092128;28;20104;-81
2022/04/16 11:23:39;;;;;;;1.30;0.70;;;12.70;71.90;;;;;;5092525;28;20032;-79
2022/04/16 11:34:24;;;;;;;0.77;0.70;;;13.30;68.00;;;;;;5092199;28;20035;-81
2022/04/16 11:36:50;;;;;;;1.45;0.70;;;13.30;66.80;;;;;;5091306;28;20024;-80
2022/04/16 11:39:24;;;;;;;1.27;0.60;;;13.20;70.40;;;;;;5073849;28;20024;-79
2022/04/16 11:41:51;;;;;;;1.50;0.90;;;13.40;67.50;;;;;;5091169;28;20077;-79
2022/04/16 11:44:17;;;;;;;2.58;0.82;;;13.50;67.70;;;;;;5073937;28;20024;-81
2022/04/16 11:46:42;;;;;;;1.35;0.70;;;13.50;67.50;;;;;;5091432;28;20575;-81
2022/04/16 11:49:10;;;;;;;0.75;0.70;;;13.50;69.30;;;;;;5091923;28;20110;-81
2022/04/16 11:51:38;;;;;;;2.65;1.55;;;13.70;68.60;;;;;;5091458;28;20528;-78
2022/04/16 11:54:04;;;;;;;2.17;0.90;;;13.80;71.10;;;;;;5091859;28;20024;-81
2022/04/16 11:56:30;;;;;;;2.20;0.95;;;13.90;65.80;;;;;;5091067;28;20019;-82
2022/04/16 11:58:55;;;;;;;1.48;1.00;;;13.90;67.90;;;;;;5073498;28;20024;-81
2022/04/16 12:01:22;;;;;;;1.67;0.77;;;13.80;67.20;;;;;;5091348;28;20460;-81
2022/04/16 12:03:48;;;;;;;3.42;0.90;;;13.60;67.90;;;;;;5091489;28;20024;-80
2022/04/16 12:06:15;;;;;;;2.17;1.00;;;13.60;65.50;;;;;;5090740;28;20342;-82
2022/04/16 12:08:42;;;;;;;1.95;0.98;;;13.60;68.70;;;;;;5090948;28;20107;-79
2022/04/16 12:11:08;;;;;;;2.22;0.73;;;13.70;67.50;;;;;;5091266;28;20026;-79
2022/04/16 12:13:39;;;;;;;1.00;0.60;;;13.70;67.40;;;;;;5073042;28;20420;-81
2022/04/16 12:16:14;;;;;;;1.00;0.70;;;13.80;69.70;;;;;;5090897;28;20399;-82
2022/04/16 12:18:49;;;;;;;1.30;0.70;;;13.90;66.40;;;;;;5091157;28;20107;-80
2022/04/16 12:21:16;;;;;;;3.72;0.82;;;13.90;66.70;;;;;;5090780;28;20023;-80
2022/04/16 12:23:44;;;;;;;1.33;0.80;;;13.80;66.30;;;;;;5090999;28;20531;-79
2022/04/16 12:26:12;;;;;;;0.93;0.75;;;13.80;65.00;;;;;;5090677;28;20020;-80
2022/04/16 12:28:40;;;;;;;3.08;1.10;;;13.80;64.40;;;;;;5072799;28;20024;-81
2022/04/16 12:31:06;;;;;;;1.25;1.00;;;13.90;66.70;;;;;;5090896;28;20054;-82
2022/04/16 12:33:31;;;;;;;3.38;0.82;;;13.70;64.40;;;;;;5090881;28;20060;-81
2022/04/16 12:35:58;;;;;;;2.33;0.70;;;13.90;64.80;;;;;;5090317;28;20038;-80
2022/04/16 12:38:25;;;;;;;1.15;0.80;;;14.10;64.00;;;;;;5090913;28;20051;-82
2022/04/16 12:40:51;;;;;;;1.40;0.70;;;14.20;63.70;;;;;;5072609;28;20360;-81
2022/04/16 12:43:17;;;;;;;0.60;0.50;;;14.50;66.90;;;;;;5091142;28;20082;-80
2022/04/16 12:45:43;;;;;;;0.85;0.60;;;14.40;62.60;;;;;;5090399;28;20384;-81
2022/04/16 12:48:09;;;;;;;0.85;0.70;;;14.40;65.60;;;;;;5072521;28;20411;-80
2022/04/16 12:50:34;;;;;;;0.93;0.60;;;14.30;62.40;;;;;;5090488;28;20045;-83
2022/04/16 12:53:01;;;;;;;2.08;0.57;;;14.30;63.70;;;;;;5090411;28;20024;-81
2022/04/16 12:55:28;;;;;;;2.20;1.15;;;14.40;63.30;;;;;;5090247;28;20027;-81
2022/04/16 12:57:54;;;;;;;1.33;0.70;;;14.60;63.30;;;;;;5072837;28;20040;-83
2022/04/16 13:00:20;;;;;;;2.00;0.77;;;14.90;62.60;;;;;;5073111;28;20110;-83
2022/04/16 13:02:46;;;;;;;1.77;0.65;;;14.90;64.10;;;;;;5091149;28;20467;-81
2022/04/16 13:05:16;;;;;;;1.13;0.50;;;14.70;63.00;;;;;;5073014;28;20479;-84
2022/04/16 13:07:46;;;;;;;2.40;0.80;;;14.90;59.10;;;;;;5092189;28;20063;-82
2022/04/16 13:10:13;;;;;;;1.17;0.52;;;15.00;59.90;;;;;;5091983;28;20036;-79
2022/04/16 13:12:39;;;;;;;1.10;0.60;;;15.10;61.90;;;;;;5091351;28;20057;-79
2022/04/16 13:15:06;;;;;;;1.05;0.60;;;15.40;61.10;;;;;;5092353;28;20025;-81
2022/04/16 13:17:31;;;;;;;1.52;0.90;;;15.60;60.80;;;;;;5091098;28;20042;-80
2022/04/16 13:19:59;;;;;;;1.38;0.60;;;15.70;60.30;;;;;;5072623;28;20016;-83